Time;durP1;ratioP1;P1;durP2;ratioP2;P2;SDS_P1;SDS_P2;PMS_P1;PMS_P2;Temp;Humidity;BMP_temperature;BMP_pressure;BME280_temperature;BME280_humidity;BME280_pressure;Samples;Min_cycle;Max_cycle;Signal;HPM_P1;HPM_P2
2023/10/12 00:02:18;;;;;;;0.00;0.00;;;;;;;;;;5079295;28;20031;-89
2023/10/12 00:04:43;;;;;;;0.00;0.00;;;;;;;;;;5047643;28;20009;-86
2023/10/12 00:07:31;;;;;;;0.00;0.00;;;;;;;;;;5064624;28;20020;-87
2023/10/12 00:10:03;;;;;;;0.00;0.00;;;;;;;;;;5062140;28;20036;-91
2023/10/12 00:12:35;;;;;;;0.00;0.00;;;;;;;;;;5058105;28;20037;-93
2023/10/12 00:15:05;;;;;;;0.00;0.00;;;;;;;;;;5058307;28;20058;-92
2023/10/12 00:17:33;;;;;;;0.00;0.00;;;;;;;;;;5064791;28;20025;-92
2023/10/12 00:19:59;;;;;;;0.00;0.00;;;;;;;;;;5062012;28;20050;-93
2023/10/12 00:22:24;;;;;;;0.00;0.00;;;;;;;;;;5046441;28;20075;-92
2023/10/12 00:24:52;;;;;;;0.00;0.00;;;;;;;;;;5063381;28;20078;-92
2023/10/12 00:27:18;;;;;;;0.00;0.00;;;;;;;;;;5032152;28;20028;-92
2023/10/12 00:29:45;;;;;;;0.00;0.00;;;;;;;;;;5043105;28;20061;-93
2023/10/12 00:32:10;;;;;;;0.00;0.00;;;;;;;;;;5027470;28;20488;-94
2023/10/12 00:34:46;;;;;;;0.00;0.00;;;;;;;;;;5025336;28;20119;-92
2023/10/12 00:37:12;;;;;;;0.00;0.00;;;;;;;;;;5042699;28;20103;-91
2023/10/12 00:39:59;;;;;;;0.00;0.00;;;;;;;;;;5026307;28;20036;-92
2023/10/12 00:42:29;;;;;;;0.10;0.00;;;;;;;;;;5057368;28;20062;-92
2023/10/12 00:44:55;;;;;;;0.00;0.00;;;;;;;;;;5067435;28;20040;-94
2023/10/12 00:47:29;;;;;;;0.00;0.00;;;;;;;;;;5036348;28;20036;-93
2023/10/12 00:49:58;;;;;;;0.00;0.00;;;;;;;;;;5037683;28;20186;-93
2023/10/12 00:52:26;;;;;;;0.00;0.00;;;;;;;;;;5069570;28;20051;-91
2023/10/12 00:55:13;;;;;;;0.00;0.00;;;;;;;;;;5072568;28;20088;-90
2023/10/12 00:57:38;;;;;;;0.00;0.00;;;;;;;;;;5063226;28;20104;-92
2023/10/12 01:00:15;;;;;;;0.00;0.00;;;;;;;;;;5074306;28;20029;-91
2023/10/12 01:02:44;;;;;;;0.00;0.00;;;;;;;;;;5045638;28;20029;-90
2023/10/12 01:05:11;;;;;;;0.00;0.00;;;;;;;;;;5057027;28;20028;-91
2023/10/12 01:07:37;;;;;;;0.00;0.00;;;;;;;;;;5039873;28;20020;-91
2023/10/12 01:10:07;;;;;;;0.00;0.00;;;;;;;;;;5023366;28;20036;-91
2023/10/12 01:12:34;;;;;;;0.00;0.00;;;;;;;;;;5040138;28;20035;-91
2023/10/12 01:15:09;;;;;;;0.00;0.00;;;;;;;;;;5055973;28;20025;-92
2023/10/12 01:17:37;;;;;;;0.00;0.00;;;;;;;;;;5042196;28;20119;-91
2023/10/12 01:20:16;;;;;;;0.00;0.00;;;;;;;;;;5040152;28;20028;-93
2023/10/12 01:22:41;;;;;;;0.00;0.00;;;;;;;;;;5041447;28;20094;-90
2023/10/12 01:25:28;;;;;;;0.00;0.00;;;;;;;;;;5039758;28;20029;-90
2023/10/12 01:27:54;;;;;;;0.00;0.00;;;;;;;;;;5059247;28;20034;-91
2023/10/12 01:30:23;;;;;;;0.00;0.00;;;;;;;;;;5024012;28;20431;-91
2023/10/12 01:32:59;;;;;;;0.00;0.00;;;;;;;;;;5025120;28;20037;-90
2023/10/12 01:35:27;;;;;;;0.00;0.00;;;;;;;;;;5026434;28;20052;-91
2023/10/12 01:38:00;;;;;;;0.00;0.00;;;;;;;;;;5039532;28;20416;-92
2023/10/12 01:40:26;;;;;;;0.00;0.00;;;;;;;;;;5050542;28;20029;-90
2023/10/12 01:42:52;;;;;;;0.00;0.00;;;;;;;;;;5039192;28;20111;-90
2023/10/12 01:48:29;;;;;;;0.00;0.00;;;;;;;;;;5056517;28;20029;-91
2023/10/12 01:50:43;;;;;;;0.00;0.00;;;;;;;;;;5062721;28;20036;-90
2023/10/12 01:55:54;;;;;;;0.05;0.00;;;;;;;;;;5081758;28;20028;-90
2023/10/12 01:58:20;;;;;;;0.00;0.00;;;;;;;;;;5079698;28;20032;-92
2023/10/12 02:00:53;;;;;;;0.00;0.00;;;;;;;;;;5063709;28;20044;-90
2023/10/12 02:03:31;;;;;;;0.00;0.00;;;;;;;;;;5064751;28;20024;-92
2023/10/12 02:06:05;;;;;;;0.00;0.00;;;;;;;;;;5049440;28;20456;-90
2023/10/12 02:08:40;;;;;;;0.00;0.00;;;;;;;;;;5063806;28;20064;-90
2023/10/12 02:11:08;;;;;;;0.00;0.00;;;;;;;;;;5080427;28;20918;-91
2023/10/12 02:13:34;;;;;;;0.00;0.00;;;;;;;;;;5067454;28;20036;-92
2023/10/12 02:16:03;;;;;;;0.00;0.00;;;;;;;;;;5099433;28;20056;-90
2023/10/12 02:18:34;;;;;;;0.00;0.00;;;;;;;;;;5085230;28;20070;-90
2023/10/12 02:21:11;;;;;;;0.00;0.00;;;;;;;;;;5101677;28;20032;-91
2023/10/12 02:23:57;;;;;;;0.00;0.00;;;;;;;;;;5070771;28;20058;-91
2023/10/12 02:26:36;;;;;;;0.00;0.00;;;;;;;;;;5089322;28;20062;-90
2023/10/12 02:34:28;;;;;;;0.00;0.00;;;;;;;;;;5070139;28;20047;-90
2023/10/12 02:39:42;;;;;;;0.00;0.00;;;;;;;;;;5105970;28;20445;-90
2023/10/12 02:42:17;;;;;;;0.00;0.00;;;;;;;;;;5078773;28;20056;-91
2023/10/12 02:47:18;;;;;;;0.00;0.00;;;;;;;;;;5079034;28;20443;-90
2023/10/12 02:49:46;;;;;;;0.00;0.00;;;;;;;;;;5047176;28;20024;-90
2023/10/12 02:52:15;;;;;;;0.00;0.00;;;;;;;;;;5062687;28;20091;-90
2023/10/12 02:54:51;;;;;;;0.00;0.00;;;;;;;;;;5079516;28;20039;-90
2023/10/12 02:57:23;;;;;;;0.00;0.00;;;;;;;;;;5080193;28;20028;-91
2023/10/12 02:59:59;;;;;;;0.00;0.00;;;;;;;;;;5078496;28;20438;-90
2023/10/12 03:02:32;;;;;;;0.00;0.00;;;;;;;;;;5082572;28;20135;-91
2023/10/12 03:05:07;;;;;;;0.00;0.00;;;;;;;;;;5071627;28;20028;-91
2023/10/12 03:07:36;;;;;;;0.00;0.00;;;;;;;;;;5078461;28;20506;-93
2023/10/12 03:10:06;;;;;;;0.00;0.00;;;;;;;;;;5062192;28;20373;-89
2023/10/12 03:12:35;;;;;;;0.00;0.00;;;;;;;;;;5078688;28;20047;-90
2023/10/12 03:15:11;;;;;;;0.00;0.00;;;;;;;;;;5062780;28;20028;-91
2023/10/12 03:17:37;;;;;;;0.00;0.00;;;;;;;;;;5065018;28;20123;-91
2023/10/12 03:21:00;;;;;;;0.00;0.00;;;;;;;;;;5061815;28;20119;-91
2023/10/12 03:22:52;;;;;;;0.00;0.00;;;;;;;;;;5087720;28;20037;-90
2023/10/12 03:26:04;;;;;;;0.00;0.00;;;;;;;;;;5061713;28;20431;-92
2023/10/12 03:28:29;;;;;;;0.00;0.00;;;;;;;;;;5073221;28;20024;-92
2023/10/12 03:30:57;;;;;;;0.00;0.00;;;;;;;;;;5081434;28;20032;-93
2023/10/12 03:33:34;;;;;;;0.00;0.00;;;;;;;;;;5062689;28;20040;-92
2023/10/12 03:36:17;;;;;;;0.00;0.00;;;;;;;;;;5067238;28;20088;-94
2023/10/12 03:38:43;;;;;;;0.00;0.00;;;;;;;;;;5066255;28;20032;-91
2023/10/12 03:44:09;;;;;;;0.00;0.00;;;;;;;;;;5062451;28;20032;-92
2023/10/12 03:46:35;;;;;;;0.00;0.00;;;;;;;;;;5072006;28;20530;-92
2023/10/12 03:49:16;;;;;;;0.00;0.00;;;;;;;;;;5074404;28;20048;-91
2023/10/12 03:51:42;;;;;;;0.00;0.00;;;;;;;;;;5059573;28;20118;-92
2023/10/12 03:54:28;;;;;;;0.00;0.00;;;;;;;;;;5082337;28;20067;-93
2023/10/12 03:57:01;;;;;;;0.00;0.00;;;;;;;;;;5065828;28;20084;-91
2023/10/12 03:59:43;;;;;;;0.00;0.00;;;;;;;;;;5080267;28;20028;-90
2023/10/12 04:02:14;;;;;;;0.00;0.00;;;;;;;;;;5081405;28;20095;-89
2023/10/12 04:04:45;;;;;;;0.00;0.00;;;;;;;;;;5079138;28;20028;-91
2023/10/12 04:07:21;;;;;;;0.00;0.00;;;;;;;;;;5063514;28;20097;-90
2023/10/12 04:09:52;;;;;;;0.00;0.00;;;;;;;;;;5049834;28;20445;-92
2023/10/12 04:12:19;;;;;;;0.00;0.00;;;;;;;;;;5046460;28;20064;-90
2023/10/12 04:14:54;;;;;;;0.00;0.00;;;;;;;;;;5077335;28;20028;-91
2023/10/12 04:23:04;;;;;;;0.00;0.00;;;;;;;;;;5078729;28;20040;-86
2023/10/12 04:27:51;;;;;;;0.00;0.00;;;;;;;;;;5076500;28;20028;-87
2023/10/12 04:30:29;;;;;;;0.00;0.00;;;;;;;;;;5076525;28;20030;-87
2023/10/12 04:32:57;;;;;;;0.00;0.00;;;;;;;;;;5063288;28;20039;-88
2023/10/12 04:35:52;;;;;;;0.00;0.00;;;;;;;;;;5063935;28;20034;-90
2023/10/12 04:43:34;;;;;;;0.00;0.00;;;;;;;;;;5066240;28;20117;-82
2023/10/12 04:46:06;;;;;;;0.00;0.00;;;;;;;;;;5073780;28;20127;-82
2023/10/12 04:48:32;;;;;;;0.00;0.00;;;;;;;;;;5080291;28;20436;-81
2023/10/12 04:51:18;;;;;;;0.00;0.00;;;;;;;;;;5048736;28;20069;-82
2023/10/12 04:59:27;;;;;;;0.00;0.00;;;;;;;;;;5059143;28;20531;-81
2023/10/12 05:09:49;;;;;;;0.00;0.00;;;;;;;;;;5092958;28;20430;-82
2023/10/12 05:12:16;;;;;;;0.00;0.00;;;;;;;;;;5076286;28;20032;-82
2023/10/12 05:14:42;;;;;;;0.00;0.00;;;;;;;;;;5058333;28;20046;-82
2023/10/12 05:17:08;;;;;;;0.00;0.00;;;;;;;;;;5095698;28;20407;-81
2023/10/12 05:19:34;;;;;;;0.00;0.00;;;;;;;;;;5078817;28;20027;-82
2023/10/12 05:22:00;;;;;;;0.00;0.00;;;;;;;;;;5096036;28;20077;-82
2023/10/12 05:24:55;;;;;;;0.00;0.00;;;;;;;;;;5075376;28;20388;-84
2023/10/12 05:27:24;;;;;;;0.00;0.00;;;;;;;;;;5043079;28;20067;-82
2023/10/12 05:29:59;;;;;;;0.00;0.00;;;;;;;;;;5074365;28;20031;-81
2023/10/12 05:32:43;;;;;;;0.17;0.00;;;;;;;;;;5092308;28;20063;-84
2023/10/12 05:35:46;;;;;;;0.00;0.00;;;;;;;;;;5095233;28;20024;-82
2023/10/12 05:39:12;;;;;;;0.00;0.00;;;;;;;;;;5066029;28;20040;-82
2023/10/12 05:48:08;;;;;;;0.25;0.00;;;;;;;;;;5067922;28;20039;-81
2023/10/12 05:50:35;;;;;;;0.00;0.00;;;;;;;;;;5057478;28;20099;-81
2023/10/12 05:53:03;;;;;;;0.00;0.00;;;;;;;;;;5073568;28;20111;-81
2023/10/12 05:55:37;;;;;;;0.30;0.00;;;;;;;;;;5074288;28;20025;-82
2023/10/12 05:58:11;;;;;;;0.00;0.00;;;;;;;;;;5043039;28;20078;-83
2023/10/12 06:00:47;;;;;;;0.00;0.00;;;;;;;;;;5045768;28;20022;-82
2023/10/12 06:03:15;;;;;;;0.00;0.00;;;;;;;;;;5079562;28;20492;-78
2023/10/12 06:44:24;;;;;;;0.00;0.00;;;;;;;;;;5032051;28;20036;-82
2023/10/12 06:46:54;;;;;;;0.00;0.00;;;;;;;;;;5050561;28;20033;-83
2023/10/12 06:49:29;;;;;;;0.00;0.00;;;;;;;;;;5070926;28;20040;-83
2023/10/12 06:52:04;;;;;;;0.00;0.00;;;;;;;;;;5034119;28;20017;-81
2023/10/12 06:57:43;;;;;;;0.00;0.00;;;;;;;;;;5074319;28;20059;-82
2023/10/12 07:01:18;;;;;;;0.00;0.00;;;;;;;;;;5080607;28;20093;-81
2023/10/12 07:03:50;;;;;;;0.00;0.00;;;;;;;;;;5079478;28;20097;-88
2023/10/12 07:06:18;;;;;;;0.00;0.00;;;;;;;;;;5086572;28;20086;-86
2023/10/12 07:08:46;;;;;;;0.00;0.00;;;;;;;;;;5038729;28;20036;-85
2023/10/12 07:11:14;;;;;;;0.00;0.00;;;;;;;;;;5056737;28;20029;-87
2023/10/12 07:17:01;;;;;;;0.00;0.00;;;;;;;;;;5708966;22;20079;-85
2023/10/12 07:19:28;;;;;;;0.00;0.00;;;;;;;;;;5092748;28;20066;-93
2023/10/12 07:22:01;;;;;;;0.00;0.00;;;;;;;;;;5073886;28;20028;-88
2023/10/12 07:24:27;;;;;;;0.00;0.00;;;;;;;;;;5082019;28;20433;-82
2023/10/12 07:30:14;;;;;;;0.00;0.00;;;;;;;;;;5121638;28;20480;-85
2023/10/12 07:32:54;;;;;;;0.00;0.00;;;;;;;;;;5093344;28;20032;-85
2023/10/12 07:35:31;;;;;;;0.00;0.00;;;;;;;;;;5073444;28;20032;-87
2023/10/12 07:37:57;;;;;;;0.00;0.00;;;;;;;;;;5089725;28;20315;-85
2023/10/12 07:40:23;;;;;;;0.00;0.00;;;;;;;;;;5101893;28;20028;-82
2023/10/12 07:42:48;;;;;;;0.00;0.00;;;;;;;;;;5102298;28;20050;-86
2023/10/12 07:45:18;;;;;;;0.00;0.00;;;;;;;;;;5086049;28;20028;-81
2023/10/12 07:47:46;;;;;;;0.00;0.00;;;;;;;;;;5092690;28;20012;-83
2023/10/12 07:50:25;;;;;;;0.00;0.00;;;;;;;;;;5088155;28;20028;-83
2023/10/12 07:53:05;;;;;;;0.00;0.00;;;;;;;;;;5089306;28;20295;-85
2023/10/12 07:55:30;;;;;;;0.00;0.00;;;;;;;;;;5094283;28;20080;-84
2023/10/12 07:57:56;;;;;;;0.00;0.00;;;;;;;;;;5073352;28;20028;-86
2023/10/12 08:00:34;;;;;;;0.10;0.00;;;;;;;;;;5085883;28;20028;-88
2023/10/12 08:03:58;;;;;;;0.00;0.00;;;;;;;;;;5060355;28;20465;-87
2023/10/12 08:07:26;;;;;;;0.00;0.00;;;;;;;;;;5025700;28;20042;-90
2023/10/12 08:09:52;;;;;;;0.00;0.00;;;;;;;;;;5063381;28;20048;-91
2023/10/12 08:12:24;;;;;;;0.00;0.00;;;;;;;;;;5034827;28;20028;-84
2023/10/12 08:14:54;;;;;;;0.00;0.00;;;;;;;;;;5084317;28;20039;-86
2023/10/12 08:23:17;;;;;;;0.00;0.00;;;;;;;;;;5065332;28;20051;-90
2023/10/12 08:25:49;;;;;;;0.00;0.00;;;;;;;;;;5039182;28;20055;-90
2023/10/12 08:28:21;;;;;;;0.00;0.00;;;;;;;;;;5070230;28;20029;-84
2023/10/12 08:31:04;;;;;;;0.00;0.00;;;;;;;;;;5087537;28;20031;-84
2023/10/12 08:33:48;;;;;;;0.00;0.00;;;;;;;;;;5068124;28;20035;-82
2023/10/12 08:39:07;;;;;;;0.00;0.00;;;;;;;;;;5086975;28;20073;-88
2023/10/12 08:45:23;;;;;;;0.00;0.00;;;;;;;;;;5027484;28;20488;-89
2023/10/12 08:47:53;;;;;;;0.00;0.00;;;;;;;;;;5029412;28;20036;-84
2023/10/12 08:52:51;;;;;;;0.00;0.00;;;;;;;;;;5071831;28;20246;-82
2023/10/12 08:55:24;;;;;;;0.00;0.00;;;;;;;;;;5086623;28;20020;-87
2023/10/12 08:58:31;;;;;;;0.00;0.00;;;;;;;;;;5084632;28;20029;-86
2023/10/12 09:04:11;;;;;;;0.00;0.00;;;;;;;;;;5176679;22;20064;-85
2023/10/12 09:09:55;;;;;;;0.00;0.00;;;;;;;;;;5055083;28;20055;-83
2023/10/12 09:12:21;;;;;;;0.00;0.00;;;;;;;;;;5102344;28;20074;-85
2023/10/12 09:14:47;;;;;;;0.00;0.00;;;;;;;;;;5087113;28;20088;-81
2023/10/12 09:17:27;;;;;;;0.00;0.00;;;;;;;;;;5090493;28;20023;-83
2023/10/12 09:20:09;;;;;;;;;;;;;;;;;;5110390;28;20027;-82
2023/10/12 09:22:37;;;;;;;0.00;0.00;;;;;;;;;;5100180;28;19954;-83
2023/10/12 09:25:05;;;;;;;0.00;0.00;;;;;;;;;;5106368;28;20041;-86
2023/10/12 09:27:49;;;;;;;0.00;0.00;;;;;;;;;;5097694;28;20104;-86
2023/10/12 09:30:25;;;;;;;0.00;0.00;;;;;;;;;;5076314;28;20438;-84
2023/10/12 09:35:48;;;;;;;0.00;0.00;;;;;;;;;;5072855;28;20029;-84
2023/10/12 09:38:15;;;;;;;0.00;0.00;;;;;;;;;;5076483;28;20034;-87
2023/10/12 09:40:42;;;;;;;0.00;0.00;;;;;;;;;;5070340;28;20032;-86
2023/10/12 09:43:13;;;;;;;0.00;0.00;;;;;;;;;;5082153;28;20039;-86
2023/10/12 09:45:41;;;;;;;0.00;0.00;;;;;;;;;;5068884;28;20044;-85
2023/10/12 09:48:11;;;;;;;0.00;0.00;;;;;;;;;;5052210;28;20465;-88
2023/10/12 09:50:40;;;;;;;0.00;0.00;;;;;;;;;;5061712;28;20040;-87
2023/10/12 09:53:26;;;;;;;0.00;0.00;;;;;;;;;;5047425;28;20142;-79
2023/10/12 09:58:45;;;;;;;0.00;0.00;;;;;;;;;;5062193;28;20086;-84
2023/10/12 10:01:25;;;;;;;0.00;0.00;;;;;;;;;;5092779;22;20020;-93
2023/10/12 10:04:27;;;;;;;0.00;0.00;;;;;;;;;;5104284;23;20064;-87
2023/10/12 10:06:45;;;;;;;0.00;0.00;;;;;;;;;;5058662;28;20021;-90
2023/10/12 10:12:20;;;;;;;;;;;;;;;;;;;;;
2023/10/12 10:15:20;;;;;;;0.00;0.00;;;;;;;;;;5034778;28;20320;-92
2023/10/12 10:17:59;;;;;;;0.00;0.00;;;;;;;;;;5062245;28;20085;-91
2023/10/12 10:26:57;;;;;;;0.00;0.00;;;;;;;;;;5230335;22;20128;-86
2023/10/12 10:29:39;;;;;;;0.00;0.00;;;;;;;;;;5007840;28;20044;-86
2023/10/12 10:32:37;;;;;;;0.00;0.00;;;;;;;;;;5052629;28;20638;-88
2023/10/12 10:35:08;;;;;;;0.00;0.00;;;;;;;;;;5051200;28;20035;-79
2023/10/12 10:38:30;;;;;;;0.00;0.00;;;;;;;;;;5081950;28;20124;-88
2023/10/12 10:41:05;;;;;;;0.00;0.00;;;;;;;;;;5045877;28;20109;-85
2023/10/12 10:43:37;;;;;;;0.00;0.00;;;;;;;;;;5050884;28;20114;-87
2023/10/12 10:46:16;;;;;;;0.00;0.00;;;;;;;;;;5052502;28;20094;-90
2023/10/12 10:48:41;;;;;;;0.00;0.00;;;;;;;;;;5094480;28;20093;-87
2023/10/12 10:51:11;;;;;;;0.00;0.00;;;;;;;;;;5063733;28;20115;-92
2023/10/12 10:53:41;;;;;;;0.00;0.00;;;;;;;;;;5054954;28;20055;-91
2023/10/12 10:56:16;;;;;;;0.00;0.00;;;;;;;;;;5066892;28;20437;-89
2023/10/12 10:58:45;;;;;;;0.00;0.00;;;;;;;;;;5063255;28;20032;-86
2023/10/12 11:01:20;;;;;;;0.00;0.00;;;;;;;;;;5019284;28;20056;-83
2023/10/12 11:03:46;;;;;;;0.00;0.00;;;;;;;;;;5033665;28;20048;-83
2023/10/12 11:06:21;;;;;;;0.00;0.00;;;;;;;;;;5057709;28;20016;-86
2023/10/12 11:09:15;;;;;;;0.00;0.00;;;;;;;;;;5103314;28;20601;-86
2023/10/12 11:11:53;;;;;;;0.10;0.00;;;;;;;;;;5052768;28;20033;-86
2023/10/12 11:14:52;;;;;;;0.00;0.00;;;;;;;;;;5072236;28;20060;-87
2023/10/12 11:17:21;;;;;;;0.00;0.00;;;;;;;;;;5075254;28;20513;-85
2023/10/12 11:19:50;;;;;;;0.00;0.00;;;;;;;;;;5070767;28;20032;-85
2023/10/12 11:22:24;;;;;;;0.00;0.00;;;;;;;;;;5073269;28;20089;-85
2023/10/12 11:25:09;;;;;;;0.00;0.00;;;;;;;;;;5055894;28;20044;-87
2023/10/12 11:27:35;;;;;;;0.00;0.00;;;;;;;;;;5051456;28;20443;-88
2023/10/12 11:30:06;;;;;;;0.00;0.00;;;;;;;;;;5031740;28;20025;-82
2023/10/12 11:32:33;;;;;;;0.00;0.00;;;;;;;;;;5059742;28;20024;-85
2023/10/12 11:35:01;;;;;;;0.00;0.00;;;;;;;;;;5063944;28;20106;-86
2023/10/12 11:37:29;;;;;;;0.00;0.00;;;;;;;;;;5047248;28;20024;-80
2023/10/12 11:39:55;;;;;;;0.00;0.00;;;;;;;;;;5048366;28;20063;-82
2023/10/12 11:42:20;;;;;;;0.00;0.00;;;;;;;;;;5046546;28;20024;-83
2023/10/12 11:44:48;;;;;;;0.00;0.00;;;;;;;;;;5032503;28;20449;-83
2023/10/12 11:47:25;;;;;;;0.00;0.00;;;;;;;;;;5030342;28;20438;-81
2023/10/12 11:49:57;;;;;;;0.00;0.00;;;;;;;;;;5078804;28;20024;-81
2023/10/12 11:52:33;;;;;;;0.00;0.00;;;;;;;;;;5045169;28;20032;-81
2023/10/12 11:55:18;;;;;;;0.00;0.00;;;;;;;;;;5078816;28;20107;-81
2023/10/12 11:58:06;;;;;;;0.00;0.00;;;;;;;;;;5045881;28;20372;-81
2023/10/12 12:00:36;;;;;;;0.00;0.00;;;;;;;;;;5065257;28;20043;-81
2023/10/12 12:03:02;;;;;;;0.00;0.00;;;;;;;;;;5083996;28;20025;-82
2023/10/12 12:05:33;;;;;;;0.00;0.00;;;;;;;;;;5052233;28;20035;-81
2023/10/12 12:08:24;;;;;;;0.00;0.00;;;;;;;;;;5051660;28;20086;-81
2023/10/12 12:13:20;;;;;;;0.00;0.00;;;;;;;;;;5050751;28;20025;-82
2023/10/12 12:15:46;;;;;;;0.00;0.00;;;;;;;;;;5065570;28;20040;-82
2023/10/12 12:18:18;;;;;;;0.00;0.00;;;;;;;;;;5062306;28;20090;-83
2023/10/12 12:20:51;;;;;;;0.00;0.00;;;;;;;;;;5061962;28;20039;-82
2023/10/12 12:23:20;;;;;;;0.00;0.00;;;;;;;;;;5064300;28;20385;-81
2023/10/12 12:25:46;;;;;;;0.00;0.00;;;;;;;;;;5031362;28;20075;-81
2023/10/12 12:28:14;;;;;;;0.00;0.00;;;;;;;;;;5062412;28;20354;-82
2023/10/12 12:30:46;;;;;;;0.00;0.00;;;;;;;;;;5080742;28;20028;-83
2023/10/12 12:33:16;;;;;;;0.00;0.00;;;;;;;;;;5048462;28;20110;-82
2023/10/12 12:35:45;;;;;;;0.00;0.00;;;;;;;;;;5065937;28;20035;-84
2023/10/12 12:40:52;;;;;;;0.00;0.00;;;;;;;;;;5053944;28;20024;-83
2023/10/12 12:43:18;;;;;;;0.00;0.00;;;;;;;;;;5049728;28;20017;-83
2023/10/12 12:45:43;;;;;;;0.00;0.00;;;;;;;;;;5073748;28;20396;-85
2023/10/12 12:48:09;;;;;;;0.00;0.00;;;;;;;;;;5082318;28;20029;-83
2023/10/12 12:50:34;;;;;;;0.10;0.00;;;;;;;;;;5071585;28;20030;-81
2023/10/12 12:53:00;;;;;;;0.00;0.00;;;;;;;;;;5056344;28;20032;-83
2023/10/12 12:55:27;;;;;;;0.00;0.00;;;;;;;;;;5056194;28;20029;-82
2023/10/12 12:57:56;;;;;;;0.00;0.00;;;;;;;;;;5053638;28;20032;-82
2023/10/12 13:00:22;;;;;;;0.00;0.00;;;;;;;;;;5086275;28;20025;-82
2023/10/12 13:02:48;;;;;;;0.00;0.00;;;;;;;;;;5058658;28;20043;-83
2023/10/12 13:05:14;;;;;;;0.00;0.00;;;;;;;;;;5056326;28;20525;-83
2023/10/12 13:07:46;;;;;;;0.00;0.00;;;;;;;;;;5040880;28;20120;-84
2023/10/12 13:10:12;;;;;;;0.00;0.00;;;;;;;;;;5056632;28;20032;-81
2023/10/12 13:12:41;;;;;;;0.00;0.00;;;;;;;;;;5022892;28;20363;-83
2023/10/12 13:15:09;;;;;;;0.00;0.00;;;;;;;;;;5073821;28;20081;-83
2023/10/12 13:17:37;;;;;;;0.00;0.00;;;;;;;;;;5056105;28;20028;-84
2023/10/12 13:20:02;;;;;;;0.22;0.00;;;;;;;;;;5073433;28;20367;-78
2023/10/12 13:22:28;;;;;;;0.00;0.00;;;;;;;;;;5056203;28;20039;-77
2023/10/12 13:24:57;;;;;;;0.00;0.00;;;;;;;;;;5073948;28;20466;-79
2023/10/12 13:27:32;;;;;;;0.00;0.00;;;;;;;;;;5023390;28;20037;-78
2023/10/12 13:30:09;;;;;;;0.00;0.00;;;;;;;;;;5040212;28;20064;-79
2023/10/12 13:32:35;;;;;;;0.00;0.00;;;;;;;;;;5042038;28;20039;-79
2023/10/12 13:35:17;;;;;;;0.00;0.00;;;;;;;;;;5039007;28;20358;-78
2023/10/12 13:37:46;;;;;;;0.00;0.00;;;;;;;;;;5041599;28;20032;-77
2023/10/12 13:40:15;;;;;;;0.00;0.00;;;;;;;;;;5073909;28;20029;-78
2023/10/12 13:42:43;;;;;;;0.00;0.00;;;;;;;;;;5073703;28;20071;-78
2023/10/12 13:45:12;;;;;;;0.00;0.00;;;;;;;;;;5055591;28;20025;-79
2023/10/12 13:47:40;;;;;;;0.00;0.00;;;;;;;;;;5040490;28;20131;-78
2023/10/12 13:50:10;;;;;;;0.10;0.00;;;;;;;;;;5059521;28;20054;-79
2023/10/12 13:52:37;;;;;;;0.00;0.00;;;;;;;;;;5027597;28;20517;-81
2023/10/12 13:55:13;;;;;;;0.00;0.00;;;;;;;;;;5059547;28;20032;-79
2023/10/12 13:58:00;;;;;;;0.10;0.00;;;;;;;;;;5045536;28;20029;-85
2023/10/12 14:00:25;;;;;;;0.00;0.00;;;;;;;;;;5061769;28;20044;-84
2023/10/12 14:02:56;;;;;;;0.00;0.00;;;;;;;;;;5026739;28;20028;-85
2023/10/12 14:05:27;;;;;;;0.00;0.00;;;;;;;;;;5043889;28;20028;-85
2023/10/12 14:07:58;;;;;;;0.00;0.00;;;;;;;;;;5059862;28;20025;-85
2023/10/12 14:10:24;;;;;;;0.13;0.00;;;;;;;;;;5043250;28;20031;-85
2023/10/12 14:12:53;;;;;;;0.00;0.00;;;;;;;;;;5026480;28;20032;-85
2023/10/12 14:15:22;;;;;;;0.00;0.00;;;;;;;;;;5043641;28;20051;-84
2023/10/12 14:17:54;;;;;;;0.00;0.00;;;;;;;;;;5059980;28;20271;-85
2023/10/12 14:20:32;;;;;;;0.00;0.00;;;;;;;;;;5077467;28;20032;-84
2023/10/12 14:22:59;;;;;;;0.00;0.00;;;;;;;;;;5061220;28;20465;-85
2023/10/12 14:25:30;;;;;;;0.00;0.00;;;;;;;;;;5059024;28;20844;-85
2023/10/12 14:27:59;;;;;;;0.00;0.00;;;;;;;;;;5059609;28;20074;-85
2023/10/12 14:30:28;;;;;;;0.00;0.00;;;;;;;;;;5043620;28;20085;-84
2023/10/12 14:32:57;;;;;;;0.00;0.00;;;;;;;;;;5043125;28;20024;-85
2023/10/12 14:35:27;;;;;;;0.00;0.00;;;;;;;;;;5042686;28;20074;-85
2023/10/12 14:37:55;;;;;;;0.00;0.00;;;;;;;;;;5043908;28;20039;-86
2023/10/12 14:40:21;;;;;;;0.00;0.00;;;;;;;;;;5043234;28;20081;-86
2023/10/12 14:42:47;;;;;;;0.00;0.00;;;;;;;;;;5058815;28;20041;-85
2023/10/12 14:45:15;;;;;;;0.00;0.00;;;;;;;;;;5058773;28;20028;-86
2023/10/12 14:47:44;;;;;;;0.00;0.00;;;;;;;;;;5076573;28;20430;-86
2023/10/12 14:50:16;;;;;;;0.00;0.00;;;;;;;;;;5042267;28;20477;-85
2023/10/12 14:52:42;;;;;;;0.00;0.00;;;;;;;;;;5058425;28;20036;-86
2023/10/12 14:55:12;;;;;;;0.00;0.00;;;;;;;;;;5025324;28;20120;-86
2023/10/12 14:57:38;;;;;;;0.00;0.00;;;;;;;;;;5026379;28;20024;-86
2023/10/12 15:00:22;;;;;;;0.00;0.00;;;;;;;;;;5024714;28;20144;-86
2023/10/12 15:02:48;;;;;;;0.00;0.00;;;;;;;;;;5043540;28;20131;-86
2023/10/12 15:05:14;;;;;;;0.00;0.00;;;;;;;;;;5025556;28;20032;-86
2023/10/12 15:07:39;;;;;;;0.00;0.00;;;;;;;;;;5058090;28;20074;-86
2023/10/12 15:10:05;;;;;;;0.00;0.00;;;;;;;;;;5076163;28;20483;-85
2023/10/12 15:12:34;;;;;;;0.00;0.00;;;;;;;;;;5076124;28;20040;-85
2023/10/12 15:15:01;;;;;;;0.00;0.00;;;;;;;;;;5041709;28;20147;-86
2023/10/12 15:17:27;;;;;;;0.00;0.00;;;;;;;;;;5075924;28;20028;-85
2023/10/12 15:19:53;;;;;;;0.00;0.00;;;;;;;;;;5058222;28;20028;-86
2023/10/12 15:22:19;;;;;;;0.00;0.00;;;;;;;;;;5058259;28;20115;-86
2023/10/12 15:24:45;;;;;;;0.00;0.00;;;;;;;;;;5025286;28;20036;-86
2023/10/12 15:27:11;;;;;;;0.00;0.00;;;;;;;;;;5025085;28;20025;-85
2023/10/12 15:29:37;;;;;;;0.00;0.00;;;;;;;;;;5041432;28;20032;-86
2023/10/12 15:32:03;;;;;;;0.00;0.00;;;;;;;;;;5075579;28;20020;-86
2023/10/12 15:34:31;;;;;;;0.00;0.00;;;;;;;;;;5057895;28;20101;-86
2023/10/12 15:37:00;;;;;;;0.00;0.00;;;;;;;;;;5058005;28;20035;-86
2023/10/12 15:39:27;;;;;;;0.00;0.00;;;;;;;;;;5058407;28;20455;-85
2023/10/12 15:41:52;;;;;;;0.00;0.00;;;;;;;;;;5040924;28;20036;-85
2023/10/12 15:44:18;;;;;;;0.00;0.00;;;;;;;;;;5041119;28;20471;-85
2023/10/12 15:46:44;;;;;;;0.00;0.00;;;;;;;;;;5057262;28;20031;-85
2023/10/12 15:49:10;;;;;;;0.00;0.00;;;;;;;;;;5041480;28;20028;-85
2023/10/12 15:51:35;;;;;;;0.00;0.00;;;;;;;;;;5040706;28;20090;-86
2023/10/12 15:54:05;;;;;;;0.00;0.00;;;;;;;;;;5041365;28;20036;-86
2023/10/12 15:56:33;;;;;;;0.00;0.00;;;;;;;;;;5076338;28;20029;-85
2023/10/12 15:59:01;;;;;;;0.00;0.00;;;;;;;;;;5076378;28;20032;-85
2023/10/12 16:01:27;;;;;;;0.00;0.00;;;;;;;;;;5076882;28;20457;-86
2023/10/12 16:03:52;;;;;;;0.00;0.00;;;;;;;;;;5059126;28;20029;-86
2023/10/12 16:06:18;;;;;;;0.00;0.00;;;;;;;;;;5059905;28;20467;-86
2023/10/12 16:08:48;;;;;;;0.00;0.00;;;;;;;;;;5078767;28;20689;-84
2023/10/12 16:11:17;;;;;;;;;;;;;;;;;;5080088;28;20063;-86
2023/10/12 16:13:45;;;;;;;0.00;0.00;;;;;;;;;;5075219;28;19930;-83
2023/10/12 16:16:12;;;;;;;0.00;0.00;;;;;;;;;;5066630;28;20135;-85
2023/10/12 16:18:40;;;;;;;0.00;0.00;;;;;;;;;;5040701;28;20449;-86
2023/10/12 16:21:12;;;;;;;0.00;0.00;;;;;;;;;;5040834;28;20046;-85
2023/10/12 16:23:37;;;;;;;0.00;0.00;;;;;;;;;;5024852;28;20035;-85
2023/10/12 16:26:06;;;;;;;0.00;0.00;;;;;;;;;;5056709;28;20127;-86
2023/10/12 16:28:32;;;;;;;0.00;0.00;;;;;;;;;;5057384;28;20132;-85
2023/10/12 16:30:57;;;;;;;0.00;0.00;;;;;;;;;;5023646;28;20127;-85
2023/10/12 16:33:23;;;;;;;0.00;0.00;;;;;;;;;;5040218;28;20032;-86
2023/10/12 16:35:49;;;;;;;0.05;0.00;;;;;;;;;;5040244;28;20028;-86
2023/10/12 16:38:14;;;;;;;0.00;0.00;;;;;;;;;;5074700;28;20021;-86
2023/10/12 16:40:40;;;;;;;0.00;0.00;;;;;;;;;;5040015;28;20032;-85
2023/10/12 16:43:07;;;;;;;0.00;0.00;;;;;;;;;;5056426;28;20040;-85
2023/10/12 16:45:35;;;;;;;0.00;0.00;;;;;;;;;;5024211;28;20450;-85
2023/10/12 16:48:00;;;;;;;0.00;0.00;;;;;;;;;;5040104;28;20035;-85
2023/10/12 16:50:26;;;;;;;0.00;0.00;;;;;;;;;;5039832;28;20024;-85
2023/10/12 16:52:52;;;;;;;0.00;0.00;;;;;;;;;;5039953;28;20040;-85
2023/10/12 16:55:17;;;;;;;0.00;0.00;;;;;;;;;;5039910;28;20075;-85
2023/10/12 16:57:44;;;;;;;0.00;0.00;;;;;;;;;;5023257;28;20025;-86
2023/10/12 17:00:15;;;;;;;0.10;0.00;;;;;;;;;;5040663;28;20035;-85
2023/10/12 17:02:40;;;;;;;0.03;0.00;;;;;;;;;;5040759;28;20028;-85
2023/10/12 17:05:06;;;;;;;0.00;0.00;;;;;;;;;;5056110;28;20081;-86
2023/10/12 17:07:32;;;;;;;0.00;0.00;;;;;;;;;;5022979;28;20032;-86
2023/10/12 17:10:00;;;;;;;0.00;0.00;;;;;;;;;;5055966;28;20042;-86
2023/10/12 17:12:28;;;;;;;0.00;0.00;;;;;;;;;;5073964;28;20025;-86
2023/10/12 17:14:53;;;;;;;0.00;0.00;;;;;;;;;;5056711;28;20040;-85
2023/10/12 17:17:22;;;;;;;0.00;0.00;;;;;;;;;;5056123;28;20041;-86
2023/10/12 17:19:48;;;;;;;0.00;0.00;;;;;;;;;;5056710;28;20021;-86
2023/10/12 17:22:14;;;;;;;0.00;0.00;;;;;;;;;;5055715;28;20025;-85
2023/10/12 17:24:40;;;;;;;0.00;0.00;;;;;;;;;;5073830;28;20111;-85
2023/10/12 17:27:06;;;;;;;0.00;0.00;;;;;;;;;;5039952;28;20123;-86
2023/10/12 17:29:33;;;;;;;0.00;0.00;;;;;;;;;;5073775;28;20028;-86
2023/10/12 17:31:59;;;;;;;0.00;0.00;;;;;;;;;;5056032;28;20024;-86
2023/10/12 17:34:25;;;;;;;0.00;0.00;;;;;;;;;;5055919;28;20473;-84
2023/10/12 17:36:50;;;;;;;0.00;0.00;;;;;;;;;;5055843;28;20039;-86